sensor_id;sensor_type;location;lat;lon;timestamp;temperature;humidity
2749;DHT22;1382;52.142;11.618;2022-08-25T00:01:48;26.10;43.30
2749;DHT22;1382;52.142;11.618;2022-08-25T00:04:18;26.10;43.50
2749;DHT22;1382;52.142;11.618;2022-08-25T00:06:47;26.10;43.70
2749;DHT22;1382;52.142;11.618;2022-08-25T00:09:17;26.00;43.80
2749;DHT22;1382;52.142;11.618;2022-08-25T00:11:45;26.10;43.60
2749;DHT22;1382;52.142;11.618;2022-08-25T00:14:14;26.00;43.70
2749;DHT22;1382;52.142;11.618;2022-08-25T00:16:41;25.90;43.20
2749;DHT22;1382;52.142;11.618;2022-08-25T00:19:11;25.90;44.30
2749;DHT22;1382;52.142;11.618;2022-08-25T00:21:40;26.00;44.00
2749;DHT22;1382;52.142;11.618;2022-08-25T00:24:07;25.90;45.00
2749;DHT22;1382;52.142;11.618;2022-08-25T00:26:37;25.80;45.80
2749;DHT22;1382;52.142;11.618;2022-08-25T00:29:05;25.80;46.40
2749;DHT22;1382;52.142;11.618;2022-08-25T00:31:32;25.70;45.50
2749;DHT22;1382;52.142;11.618;2022-08-25T00:34:05;25.70;45.40
2749;DHT22;1382;52.142;11.618;2022-08-25T00:36:33;25.60;45.00
2749;DHT22;1382;52.142;11.618;2022-08-25T00:39:01;25.60;45.10
2749;DHT22;1382;52.142;11.618;2022-08-25T00:41:54;25.60;45.70
2749;DHT22;1382;52.142;11.618;2022-08-25T00:44:23;25.60;45.00
2749;DHT22;1382;52.142;11.618;2022-08-25T00:46:52;25.50;45.10
2749;DHT22;1382;52.142;11.618;2022-08-25T00:49:24;25.50;45.10
2749;DHT22;1382;52.142;11.618;2022-08-25T00:51:55;25.40;46.10
2749;DHT22;1382;52.142;11.618;2022-08-25T00:54:27;25.40;44.70
2749;DHT22;1382;52.142;11.618;2022-08-25T00:56:55;25.40;45.70
2749;DHT22;1382;52.142;11.618;2022-08-25T00:59:24;25.30;45.10
2749;DHT22;1382;52.142;11.618;2022-08-25T01:01:52;25.30;44.90
2749;DHT22;1382;52.142;11.618;2022-08-25T01:04:20;25.30;44.90
2749;DHT22;1382;52.142;11.618;2022-08-25T01:06:48;25.20;45.80
2749;DHT22;1382;52.142;11.618;2022-08-25T01:09:16;25.20;45.80
2749;DHT22;1382;52.142;11.618;2022-08-25T01:11:45;25.20;45.40
2749;DHT22;1382;52.142;11.618;2022-08-25T01:14:15;25.30;46.50
2749;DHT22;1382;52.142;11.618;2022-08-25T01:16:42;25.10;45.30
2749;DHT22;1382;52.142;11.618;2022-08-25T01:19:11;25.10;45.00
2749;DHT22;1382;52.142;11.618;2022-08-25T01:21:44;25.10;45.80
2749;DHT22;1382;52.142;11.618;2022-08-25T01:24:16;25.10;45.90
2749;DHT22;1382;52.142;11.618;2022-08-25T01:26:45;25.00;45.20
2749;DHT22;1382;52.142;11.618;2022-08-25T01:29:11;25.10;45.00
2749;DHT22;1382;52.142;11.618;2022-08-25T01:31:38;25.10;44.40
2749;DHT22;1382;52.142;11.618;2022-08-25T01:34:07;24.90;45.10
2749;DHT22;1382;52.142;11.618;2022-08-25T01:36:35;25.00;45.00
2749;DHT22;1382;52.142;11.618;2022-08-25T01:39:04;24.90;45.30
2749;DHT22;1382;52.142;11.618;2022-08-25T01:41:39;24.90;45.60
2749;DHT22;1382;52.142;11.618;2022-08-25T01:44:10;24.90;45.90
2749;DHT22;1382;52.142;11.618;2022-08-25T01:46:42;24.80;45.50
2749;DHT22;1382;52.142;11.618;2022-08-25T01:49:09;24.80;46.40
2749;DHT22;1382;52.142;11.618;2022-08-25T01:51:39;24.80;46.40
2749;DHT22;1382;52.142;11.618;2022-08-25T01:54:09;24.80;47.30
2749;DHT22;1382;52.142;11.618;2022-08-25T01:56:36;24.70;47.30
2749;DHT22;1382;52.142;11.618;2022-08-25T01:59:03;24.70;46.50
2749;DHT22;1382;52.142;11.618;2022-08-25T02:01:29;24.60;47.00
2749;DHT22;1382;52.142;11.618;2022-08-25T02:03:56;24.60;47.50
2749;DHT22;1382;52.142;11.618;2022-08-25T02:06:25;24.60;46.40
2749;DHT22;1382;52.142;11.618;2022-08-25T02:08:58;24.60;46.30
2749;DHT22;1382;52.142;11.618;2022-08-25T02:11:27;24.50;46.60
2749;DHT22;1382;52.142;11.618;2022-08-25T02:13:54;24.50;47.20
2749;DHT22;1382;52.142;11.618;2022-08-25T02:16:24;24.50;46.70
2749;DHT22;1382;52.142;11.618;2022-08-25T02:18:51;24.50;47.50
2749;DHT22;1382;52.142;11.618;2022-08-25T02:21:18;24.50;47.10
2749;DHT22;1382;52.142;11.618;2022-08-25T02:23:45;24.40;47.30
2749;DHT22;1382;52.142;11.618;2022-08-25T02:26:12;24.50;47.40
2749;DHT22;1382;52.142;11.618;2022-08-25T02:28:41;24.30;48.00
2749;DHT22;1382;52.142;11.618;2022-08-25T02:31:08;24.30;47.20
2749;DHT22;1382;52.142;11.618;2022-08-25T02:33:35;24.30;46.30
2749;DHT22;1382;52.142;11.618;2022-08-25T02:36:03;24.40;45.40
2749;DHT22;1382;52.142;11.618;2022-08-25T02:38:30;24.20;45.90
2749;DHT22;1382;52.142;11.618;2022-08-25T02:40:59;24.20;45.90
2749;DHT22;1382;52.142;11.618;2022-08-25T02:43:27;24.10;45.50
2749;DHT22;1382;52.142;11.618;2022-08-25T02:45:55;24.10;45.60
2749;DHT22;1382;52.142;11.618;2022-08-25T02:48:22;24.10;45.60
2749;DHT22;1382;52.142;11.618;2022-08-25T02:50:50;24.10;45.50
2749;DHT22;1382;52.142;11.618;2022-08-25T02:53:18;24.10;45.60
2749;DHT22;1382;52.142;11.618;2022-08-25T02:55:45;24.00;45.50
2749;DHT22;1382;52.142;11.618;2022-08-25T02:58:12;24.00;46.40
2749;DHT22;1382;52.142;11.618;2022-08-25T03:00:39;24.00;47.20
2749;DHT22;1382;52.142;11.618;2022-08-25T03:03:10;24.00;47.10
2749;DHT22;1382;52.142;11.618;2022-08-25T03:05:37;23.90;47.50
2749;DHT22;1382;52.142;11.618;2022-08-25T03:08:05;23.90;46.90
2749;DHT22;1382;52.142;11.618;2022-08-25T03:10:32;23.90;46.50
2749;DHT22;1382;52.142;11.618;2022-08-25T03:12:59;23.80;46.90
2749;DHT22;1382;52.142;11.618;2022-08-25T03:15:25;23.80;47.30
2749;DHT22;1382;52.142;11.618;2022-08-25T03:17:56;23.80;47.90
2749;DHT22;1382;52.142;11.618;2022-08-25T03:20:26;23.80;47.90
2749;DHT22;1382;52.142;11.618;2022-08-25T03:22:53;23.70;49.00
2749;DHT22;1382;52.142;11.618;2022-08-25T03:25:20;23.70;48.80
2749;DHT22;1382;52.142;11.618;2022-08-25T03:27:49;23.70;48.40
2749;DHT22;1382;52.142;11.618;2022-08-25T03:30:16;23.60;47.80
2749;DHT22;1382;52.142;11.618;2022-08-25T03:32:44;23.60;48.40
2749;DHT22;1382;52.142;11.618;2022-08-25T03:35:11;23.60;46.90
2749;DHT22;1382;52.142;11.618;2022-08-25T03:37:39;23.60;47.20
2749;DHT22;1382;52.142;11.618;2022-08-25T03:40:09;23.60;47.40
2749;DHT22;1382;52.142;11.618;2022-08-25T03:42:43;23.60;47.30
2749;DHT22;1382;52.142;11.618;2022-08-25T03:45:12;23.50;47.10
2749;DHT22;1382;52.142;11.618;2022-08-25T03:47:39;23.50;47.10
2749;DHT22;1382;52.142;11.618;2022-08-25T03:50:09;23.50;47.40
2749;DHT22;1382;52.142;11.618;2022-08-25T03:52:36;23.50;48.50
2749;DHT22;1382;52.142;11.618;2022-08-25T03:55:12;23.50;47.40
2749;DHT22;1382;52.142;11.618;2022-08-25T03:57:39;23.50;48.80
2749;DHT22;1382;52.142;11.618;2022-08-25T04:00:08;23.50;47.80
2749;DHT22;1382;52.142;11.618;2022-08-25T04:02:35;23.50;47.50
2749;DHT22;1382;52.142;11.618;2022-08-25T04:05:02;23.50;47.60
2749;DHT22;1382;52.142;11.618;2022-08-25T04:07:29;23.50;47.10
2749;DHT22;1382;52.142;11.618;2022-08-25T04:09:56;23.40;48.30
2749;DHT22;1382;52.142;11.618;2022-08-25T04:12:24;23.40;46.70
2749;DHT22;1382;52.142;11.618;2022-08-25T04:14:51;23.50;48.30
2749;DHT22;1382;52.142;11.618;2022-08-25T04:17:18;23.50;48.80
2749;DHT22;1382;52.142;11.618;2022-08-25T04:19:45;23.40;48.20
2749;DHT22;1382;52.142;11.618;2022-08-25T04:22:11;23.60;48.80
2749;DHT22;1382;52.142;11.618;2022-08-25T04:24:39;23.40;48.00
2749;DHT22;1382;52.142;11.618;2022-08-25T04:27:05;23.40;48.80
2749;DHT22;1382;52.142;11.618;2022-08-25T04:29:34;23.40;49.50
2749;DHT22;1382;52.142;11.618;2022-08-25T04:32:00;23.40;49.80
2749;DHT22;1382;52.142;11.618;2022-08-25T04:34:27;23.40;48.60
2749;DHT22;1382;52.142;11.618;2022-08-25T04:36:57;23.40;47.40
2749;DHT22;1382;52.142;11.618;2022-08-25T04:39:24;23.40;47.60
2749;DHT22;1382;52.142;11.618;2022-08-25T04:41:51;23.40;47.80
2749;DHT22;1382;52.142;11.618;2022-08-25T04:44:17;23.40;48.30
2749;DHT22;1382;52.142;11.618;2022-08-25T04:46:46;23.30;49.20
2749;DHT22;1382;52.142;11.618;2022-08-25T04:49:12;23.40;49.90
2749;DHT22;1382;52.142;11.618;2022-08-25T04:51:40;23.30;49.60
2749;DHT22;1382;52.142;11.618;2022-08-25T04:54:09;23.30;50.10
2749;DHT22;1382;52.142;11.618;2022-08-25T04:56:38;23.30;50.40
2749;DHT22;1382;52.142;11.618;2022-08-25T04:59:07;23.30;50.60
2749;DHT22;1382;52.142;11.618;2022-08-25T05:01:34;23.30;50.30
2749;DHT22;1382;52.142;11.618;2022-08-25T05:04:05;23.30;50.00
2749;DHT22;1382;52.142;11.618;2022-08-25T05:06:32;23.30;51.10
2749;DHT22;1382;52.142;11.618;2022-08-25T05:09:00;23.30;51.30
2749;DHT22;1382;52.142;11.618;2022-08-25T05:11:27;23.30;51.00
2749;DHT22;1382;52.142;11.618;2022-08-25T05:13:55;23.30;51.20
2749;DHT22;1382;52.142;11.618;2022-08-25T05:16:24;23.30;51.10
2749;DHT22;1382;52.142;11.618;2022-08-25T05:18:51;23.30;48.70
2749;DHT22;1382;52.142;11.618;2022-08-25T05:21:21;23.30;48.50
2749;DHT22;1382;52.142;11.618;2022-08-25T05:23:49;23.40;48.60
2749;DHT22;1382;52.142;11.618;2022-08-25T05:26:19;23.30;48.00
2749;DHT22;1382;52.142;11.618;2022-08-25T05:28:48;23.40;49.50
2749;DHT22;1382;52.142;11.618;2022-08-25T05:31:15;23.40;49.00
2749;DHT22;1382;52.142;11.618;2022-08-25T05:33:43;23.40;49.50
2749;DHT22;1382;52.142;11.618;2022-08-25T05:36:11;23.40;49.60
2749;DHT22;1382;52.142;11.618;2022-08-25T05:38:40;23.40;50.10
2749;DHT22;1382;52.142;11.618;2022-08-25T05:41:10;23.50;50.90
2749;DHT22;1382;52.142;11.618;2022-08-25T05:43:39;23.50;52.00
2749;DHT22;1382;52.142;11.618;2022-08-25T05:46:06;23.60;50.00
2749;DHT22;1382;52.142;11.618;2022-08-25T05:48:33;23.60;49.40
2749;DHT22;1382;52.142;11.618;2022-08-25T05:51:02;23.60;50.70
2749;DHT22;1382;52.142;11.618;2022-08-25T05:53:30;23.70;50.00
2749;DHT22;1382;52.142;11.618;2022-08-25T05:56:01;23.70;50.40
2749;DHT22;1382;52.142;11.618;2022-08-25T05:58:29;23.80;49.90
2749;DHT22;1382;52.142;11.618;2022-08-25T06:00:57;23.80;50.50
2749;DHT22;1382;52.142;11.618;2022-08-25T06:03:25;23.90;50.80
2749;DHT22;1382;52.142;11.618;2022-08-25T06:05:51;23.90;52.30
2749;DHT22;1382;52.142;11.618;2022-08-25T06:08:18;23.90;52.50
2749;DHT22;1382;52.142;11.618;2022-08-25T06:10:50;24.00;52.50
2749;DHT22;1382;52.142;11.618;2022-08-25T06:13:18;24.10;53.00
2749;DHT22;1382;52.142;11.618;2022-08-25T06:15:56;24.10;52.70
2749;DHT22;1382;52.142;11.618;2022-08-25T06:18:23;24.10;52.40
2749;DHT22;1382;52.142;11.618;2022-08-25T06:20:49;24.20;52.50
2749;DHT22;1382;52.142;11.618;2022-08-25T06:23:16;24.40;52.70
2749;DHT22;1382;52.142;11.618;2022-08-25T06:25:48;24.30;52.80
2749;DHT22;1382;52.142;11.618;2022-08-25T06:28:15;24.40;53.20
2749;DHT22;1382;52.142;11.618;2022-08-25T06:30:43;24.40;53.10
2749;DHT22;1382;52.142;11.618;2022-08-25T06:33:10;24.50;53.40
2749;DHT22;1382;52.142;11.618;2022-08-25T06:35:40;24.60;53.10
2749;DHT22;1382;52.142;11.618;2022-08-25T06:38:07;24.60;53.10
2749;DHT22;1382;52.142;11.618;2022-08-25T06:40:34;24.70;53.20
2749;DHT22;1382;52.142;11.618;2022-08-25T06:43:01;24.70;53.30
2749;DHT22;1382;52.142;11.618;2022-08-25T06:45:28;24.80;53.20
2749;DHT22;1382;52.142;11.618;2022-08-25T06:47:57;24.80;53.00
2749;DHT22;1382;52.142;11.618;2022-08-25T06:50:24;24.90;53.40
2749;DHT22;1382;52.142;11.618;2022-08-25T06:52:54;24.90;53.10
2749;DHT22;1382;52.142;11.618;2022-08-25T06:55:21;25.00;53.70
2749;DHT22;1382;52.142;11.618;2022-08-25T06:57:51;25.00;52.80
2749;DHT22;1382;52.142;11.618;2022-08-25T07:00:21;25.10;53.10
2749;DHT22;1382;52.142;11.618;2022-08-25T07:02:58;25.20;53.10
2749;DHT22;1382;52.142;11.618;2022-08-25T07:05:26;25.20;52.90
2749;DHT22;1382;52.142;11.618;2022-08-25T07:08:08;25.30;52.40
2749;DHT22;1382;52.142;11.618;2022-08-25T07:10:35;25.30;52.50
2749;DHT22;1382;52.142;11.618;2022-08-25T07:13:02;25.40;53.20
2749;DHT22;1382;52.142;11.618;2022-08-25T07:15:29;25.50;53.20
2749;DHT22;1382;52.142;11.618;2022-08-25T07:17:57;25.50;52.20
2749;DHT22;1382;52.142;11.618;2022-08-25T07:20:24;25.60;53.00
2749;DHT22;1382;52.142;11.618;2022-08-25T07:22:56;25.70;51.80
2749;DHT22;1382;52.142;11.618;2022-08-25T07:25:23;25.90;51.80
2749;DHT22;1382;52.142;11.618;2022-08-25T07:27:50;25.90;53.00
2749;DHT22;1382;52.142;11.618;2022-08-25T07:30:22;25.90;51.90
2749;DHT22;1382;52.142;11.618;2022-08-25T07:32:49;26.00;52.60
2749;DHT22;1382;52.142;11.618;2022-08-25T07:35:22;26.20;54.00
2749;DHT22;1382;52.142;11.618;2022-08-25T07:37:53;26.20;54.00
2749;DHT22;1382;52.142;11.618;2022-08-25T07:40:26;26.40;53.60
2749;DHT22;1382;52.142;11.618;2022-08-25T07:42:55;26.50;54.00
2749;DHT22;1382;52.142;11.618;2022-08-25T07:45:24;26.60;53.50
2749;DHT22;1382;52.142;11.618;2022-08-25T07:47:51;26.80;54.20
2749;DHT22;1382;52.142;11.618;2022-08-25T07:50:18;26.90;53.70
2749;DHT22;1382;52.142;11.618;2022-08-25T07:52:46;27.00;52.10
2749;DHT22;1382;52.142;11.618;2022-08-25T07:55:21;27.10;52.50
2749;DHT22;1382;52.142;11.618;2022-08-25T07:57:48;27.30;52.20
2749;DHT22;1382;52.142;11.618;2022-08-25T08:00:27;27.50;52.90
2749;DHT22;1382;52.142;11.618;2022-08-25T08:02:55;27.60;53.70
2749;DHT22;1382;52.142;11.618;2022-08-25T08:05:23;27.80;52.90
2749;DHT22;1382;52.142;11.618;2022-08-25T08:07:51;27.90;51.70
2749;DHT22;1382;52.142;11.618;2022-08-25T08:10:19;28.00;51.30
2749;DHT22;1382;52.142;11.618;2022-08-25T08:13:07;28.10;50.90
2749;DHT22;1382;52.142;11.618;2022-08-25T08:15:44;28.20;51.90
2749;DHT22;1382;52.142;11.618;2022-08-25T08:18:10;28.40;52.00
2749;DHT22;1382;52.142;11.618;2022-08-25T08:20:38;28.50;51.80
2749;DHT22;1382;52.142;11.618;2022-08-25T08:23:10;28.70;50.70
2749;DHT22;1382;52.142;11.618;2022-08-25T08:25:37;28.80;50.30
2749;DHT22;1382;52.142;11.618;2022-08-25T08:28:05;28.90;50.10
2749;DHT22;1382;52.142;11.618;2022-08-25T08:30:33;29.20;50.20
2749;DHT22;1382;52.142;11.618;2022-08-25T08:33:00;29.20;50.10
2749;DHT22;1382;52.142;11.618;2022-08-25T08:35:37;29.30;49.60
2749;DHT22;1382;52.142;11.618;2022-08-25T08:38:04;29.50;49.60
2749;DHT22;1382;52.142;11.618;2022-08-25T08:40:57;29.60;49.50
2749;DHT22;1382;52.142;11.618;2022-08-25T08:43:26;29.80;49.20
2749;DHT22;1382;52.142;11.618;2022-08-25T08:45:58;29.90;49.10
2749;DHT22;1382;52.142;11.618;2022-08-25T08:48:41;30.20;49.00
2749;DHT22;1382;52.142;11.618;2022-08-25T08:51:17;30.20;48.70
2749;DHT22;1382;52.142;11.618;2022-08-25T08:53:49;30.30;48.70
2749;DHT22;1382;52.142;11.618;2022-08-25T08:56:21;30.40;48.70
2749;DHT22;1382;52.142;11.618;2022-08-25T08:58:51;30.60;48.40
2749;DHT22;1382;52.142;11.618;2022-08-25T09:01:24;30.70;48.40
2749;DHT22;1382;52.142;11.618;2022-08-25T09:03:55;30.80;48.10
2749;DHT22;1382;52.142;11.618;2022-08-25T09:06:27;30.90;47.90
2749;DHT22;1382;52.142;11.618;2022-08-25T09:08:58;31.00;47.60
2749;DHT22;1382;52.142;11.618;2022-08-25T09:11:49;31.30;47.50
2749;DHT22;1382;52.142;11.618;2022-08-25T09:14:36;31.50;47.00
2749;DHT22;1382;52.142;11.618;2022-08-25T09:17:09;31.40;47.00
2749;DHT22;1382;52.142;11.618;2022-08-25T09:19:46;31.50;47.00
2749;DHT22;1382;52.142;11.618;2022-08-25T09:22:24;31.70;46.70
2749;DHT22;1382;52.142;11.618;2022-08-25T09:25:07;31.80;46.60
2749;DHT22;1382;52.142;11.618;2022-08-25T09:27:42;31.90;46.30
2749;DHT22;1382;52.142;11.618;2022-08-25T09:30:14;32.00;46.10
2749;DHT22;1382;52.142;11.618;2022-08-25T09:32:45;32.10;46.00
2749;DHT22;1382;52.142;11.618;2022-08-25T09:35:19;32.30;45.90
2749;DHT22;1382;52.142;11.618;2022-08-25T09:37:57;32.30;45.40
2749;DHT22;1382;52.142;11.618;2022-08-25T09:40:24;32.40;45.20
2749;DHT22;1382;52.142;11.618;2022-08-25T09:42:57;32.40;45.20
2749;DHT22;1382;52.142;11.618;2022-08-25T09:45:33;32.60;45.00
2749;DHT22;1382;52.142;11.618;2022-08-25T09:48:02;32.60;44.60
2749;DHT22;1382;52.142;11.618;2022-08-25T09:50:49;32.70;44.80
2749;DHT22;1382;52.142;11.618;2022-08-25T09:53:17;32.90;44.70
2749;DHT22;1382;52.142;11.618;2022-08-25T09:55:54;32.80;44.40
2749;DHT22;1382;52.142;11.618;2022-08-25T09:58:27;32.80;44.10
2749;DHT22;1382;52.142;11.618;2022-08-25T10:01:10;32.80;44.20
2749;DHT22;1382;52.142;11.618;2022-08-25T10:03:37;33.00;44.00
2749;DHT22;1382;52.142;11.618;2022-08-25T10:06:06;32.90;44.00
2749;DHT22;1382;52.142;11.618;2022-08-25T10:08:50;32.90;43.70
2749;DHT22;1382;52.142;11.618;2022-08-25T10:11:31;33.00;43.80
2749;DHT22;1382;52.142;11.618;2022-08-25T10:14:05;33.00;43.60
2749;DHT22;1382;52.142;11.618;2022-08-25T10:16:32;33.00;44.20
2749;DHT22;1382;52.142;11.618;2022-08-25T10:19:05;33.00;43.60
2749;DHT22;1382;52.142;11.618;2022-08-25T10:21:33;33.10;43.80
2749;DHT22;1382;52.142;11.618;2022-08-25T10:24:00;33.10;43.70
2749;DHT22;1382;52.142;11.618;2022-08-25T10:26:37;33.10;44.20
2749;DHT22;1382;52.142;11.618;2022-08-25T10:29:21;33.20;43.70
2749;DHT22;1382;52.142;11.618;2022-08-25T10:31:55;33.30;43.30
2749;DHT22;1382;52.142;11.618;2022-08-25T10:34:32;33.50;43.40
2749;DHT22;1382;52.142;11.618;2022-08-25T10:37:09;33.50;43.00
2749;DHT22;1382;52.142;11.618;2022-08-25T10:39:43;33.60;42.50
2749;DHT22;1382;52.142;11.618;2022-08-25T10:42:26;33.60;42.40
2749;DHT22;1382;52.142;11.618;2022-08-25T10:45:09;33.70;42.00
2749;DHT22;1382;52.142;11.618;2022-08-25T10:50:40;33.80;42.00
2749;DHT22;1382;52.142;11.618;2022-08-25T10:53:24;33.90;41.60
2749;DHT22;1382;52.142;11.618;2022-08-25T10:56:06;33.90;41.40
2749;DHT22;1382;52.142;11.618;2022-08-25T10:58:57;33.90;41.30
2749;DHT22;1382;52.142;11.618;2022-08-25T11:01:36;34.10;41.30
2749;DHT22;1382;52.142;11.618;2022-08-25T11:04:13;34.00;41.40
2749;DHT22;1382;52.142;11.618;2022-08-25T11:06:43;34.00;41.20
2749;DHT22;1382;52.142;11.618;2022-08-25T11:09:24;34.00;41.20
2749;DHT22;1382;52.142;11.618;2022-08-25T11:11:56;34.00;41.40
2749;DHT22;1382;52.142;11.618;2022-08-25T11:14:28;34.00;41.40
2749;DHT22;1382;52.142;11.618;2022-08-25T11:17:04;34.00;41.10
2749;DHT22;1382;52.142;11.618;2022-08-25T11:19:34;34.10;41.20
2749;DHT22;1382;52.142;11.618;2022-08-25T11:22:06;34.10;40.80
2749;DHT22;1382;52.142;11.618;2022-08-25T11:24:46;34.20;41.10
2749;DHT22;1382;52.142;11.618;2022-08-25T11:27:21;34.30;40.90
2749;DHT22;1382;52.142;11.618;2022-08-25T11:29:58;34.10;40.70
2749;DHT22;1382;52.142;11.618;2022-08-25T11:32:27;34.20;40.80
2749;DHT22;1382;52.142;11.618;2022-08-25T11:34:54;34.20;40.70
2749;DHT22;1382;52.142;11.618;2022-08-25T11:37:24;34.20;40.70
2749;DHT22;1382;52.142;11.618;2022-08-25T11:40:18;34.30;40.80
2749;DHT22;1382;52.142;11.618;2022-08-25T11:42:58;34.40;40.40
2749;DHT22;1382;52.142;11.618;2022-08-25T11:45:50;34.30;41.00
2749;DHT22;1382;52.142;11.618;2022-08-25T11:48:34;34.40;40.50
2749;DHT22;1382;52.142;11.618;2022-08-25T11:51:05;34.40;40.80
2749;DHT22;1382;52.142;11.618;2022-08-25T11:53:33;34.40;40.80
2749;DHT22;1382;52.142;11.618;2022-08-25T11:56:05;34.50;40.80
2749;DHT22;1382;52.142;11.618;2022-08-25T11:58:45;34.60;40.60
2749;DHT22;1382;52.142;11.618;2022-08-25T12:04:38;34.70;40.00
2749;DHT22;1382;52.142;11.618;2022-08-25T12:10:14;34.70;39.70
2749;DHT22;1382;52.142;11.618;2022-08-25T12:19:26;34.30;39.80
2749;DHT22;1382;52.142;11.618;2022-08-25T12:21:57;33.90;41.50
2749;DHT22;1382;52.142;11.618;2022-08-25T12:24:45;34.00;41.20
2749;DHT22;1382;52.142;11.618;2022-08-25T12:27:22;34.30;41.30
2749;DHT22;1382;52.142;11.618;2022-08-25T12:29:56;34.40;41.00
2749;DHT22;1382;52.142;11.618;2022-08-25T12:32:38;34.60;40.70
2749;DHT22;1382;52.142;11.618;2022-08-25T12:35:21;34.70;40.60
2749;DHT22;1382;52.142;11.618;2022-08-25T12:38:03;34.90;40.30
2749;DHT22;1382;52.142;11.618;2022-08-25T12:40:34;35.00;40.30
2749;DHT22;1382;52.142;11.618;2022-08-25T12:45:51;35.20;39.30
2749;DHT22;1382;52.142;11.618;2022-08-25T12:48:41;35.30;39.20
2749;DHT22;1382;52.142;11.618;2022-08-25T12:51:16;35.60;38.80
2749;DHT22;1382;52.142;11.618;2022-08-25T12:53:47;35.40;39.10
2749;DHT22;1382;52.142;11.618;2022-08-25T12:56:27;35.60;39.20
2749;DHT22;1382;52.142;11.618;2022-08-25T12:59:06;35.70;39.10
2749;DHT22;1382;52.142;11.618;2022-08-25T13:01:54;35.70;39.20
2749;DHT22;1382;52.142;11.618;2022-08-25T13:04:40;35.70;38.60
2749;DHT22;1382;52.142;11.618;2022-08-25T13:07:23;35.70;38.30
2749;DHT22;1382;52.142;11.618;2022-08-25T13:10:17;35.80;38.20
2749;DHT22;1382;52.142;11.618;2022-08-25T13:12:49;35.90;38.30
2749;DHT22;1382;52.142;11.618;2022-08-25T13:15:35;36.00;38.30
2749;DHT22;1382;52.142;11.618;2022-08-25T13:18:18;35.90;37.80
2749;DHT22;1382;52.142;11.618;2022-08-25T13:20:46;35.90;37.90
2749;DHT22;1382;52.142;11.618;2022-08-25T13:23:23;35.90;37.90
2749;DHT22;1382;52.142;11.618;2022-08-25T13:25:52;36.00;37.90
2749;DHT22;1382;52.142;11.618;2022-08-25T13:28:27;36.00;38.00
2749;DHT22;1382;52.142;11.618;2022-08-25T13:31:00;35.90;37.90
2749;DHT22;1382;52.142;11.618;2022-08-25T13:33:27;36.00;37.70
2749;DHT22;1382;52.142;11.618;2022-08-25T13:35:56;36.10;37.60
2749;DHT22;1382;52.142;11.618;2022-08-25T13:38:25;36.00;36.90
2749;DHT22;1382;52.142;11.618;2022-08-25T13:41:01;36.00;38.50
2749;DHT22;1382;52.142;11.618;2022-08-25T13:43:35;36.00;38.50
2749;DHT22;1382;52.142;11.618;2022-08-25T13:46:04;36.10;38.50
2749;DHT22;1382;52.142;11.618;2022-08-25T13:48:33;36.10;38.30
2749;DHT22;1382;52.142;11.618;2022-08-25T13:51:16;36.20;38.70
2749;DHT22;1382;52.142;11.618;2022-08-25T13:53:53;36.30;37.80
2749;DHT22;1382;52.142;11.618;2022-08-25T13:56:30;36.30;36.90
2749;DHT22;1382;52.142;11.618;2022-08-25T13:59:19;36.40;37.70
2749;DHT22;1382;52.142;11.618;2022-08-25T14:01:48;36.50;37.70
2749;DHT22;1382;52.142;11.618;2022-08-25T14:04:22;36.50;36.10
2749;DHT22;1382;52.142;11.618;2022-08-25T14:07:15;36.60;36.70
2749;DHT22;1382;52.142;11.618;2022-08-25T14:09:53;36.70;37.10
2749;DHT22;1382;52.142;11.618;2022-08-25T14:12:32;36.80;37.00
2749;DHT22;1382;52.142;11.618;2022-08-25T14:15:03;36.90;36.50
2749;DHT22;1382;52.142;11.618;2022-08-25T14:17:31;36.90;37.00
2749;DHT22;1382;52.142;11.618;2022-08-25T14:20:16;37.00;36.60
2749;DHT22;1382;52.142;11.618;2022-08-25T14:22:43;37.10;36.40
2749;DHT22;1382;52.142;11.618;2022-08-25T14:25:11;37.10;36.20
2749;DHT22;1382;52.142;11.618;2022-08-25T14:27:41;37.20;36.20
2749;DHT22;1382;52.142;11.618;2022-08-25T14:30:28;37.30;36.30
2749;DHT22;1382;52.142;11.618;2022-08-25T14:32:55;37.30;35.60
2749;DHT22;1382;52.142;11.618;2022-08-25T14:35:22;37.40;35.70
2749;DHT22;1382;52.142;11.618;2022-08-25T14:37:49;37.50;35.50
2749;DHT22;1382;52.142;11.618;2022-08-25T14:40:18;37.50;35.20
2749;DHT22;1382;52.142;11.618;2022-08-25T14:42:45;37.50;34.70
2749;DHT22;1382;52.142;11.618;2022-08-25T14:45:13;37.50;34.40
2749;DHT22;1382;52.142;11.618;2022-08-25T14:47:40;37.50;34.70
2749;DHT22;1382;52.142;11.618;2022-08-25T14:50:07;37.60;34.20
2749;DHT22;1382;52.142;11.618;2022-08-25T14:52:34;37.60;34.30
2749;DHT22;1382;52.142;11.618;2022-08-25T14:55:00;37.60;34.30
2749;DHT22;1382;52.142;11.618;2022-08-25T14:57:29;37.60;34.20
2749;DHT22;1382;52.142;11.618;2022-08-25T14:59:55;37.70;34.60
2749;DHT22;1382;52.142;11.618;2022-08-25T15:02:23;37.70;34.50
2749;DHT22;1382;52.142;11.618;2022-08-25T15:04:58;37.80;34.20
2749;DHT22;1382;52.142;11.618;2022-08-25T15:07:27;37.60;33.80
2749;DHT22;1382;52.142;11.618;2022-08-25T15:09:54;37.60;34.00
2749;DHT22;1382;52.142;11.618;2022-08-25T15:12:21;37.60;34.20
2749;DHT22;1382;52.142;11.618;2022-08-25T15:15:10;37.60;33.70
2749;DHT22;1382;52.142;11.618;2022-08-25T15:17:40;37.60;34.10
2749;DHT22;1382;52.142;11.618;2022-08-25T15:20:10;37.60;34.80
2749;DHT22;1382;52.142;11.618;2022-08-25T15:22:37;37.60;34.70
2749;DHT22;1382;52.142;11.618;2022-08-25T15:25:04;37.60;34.60
2749;DHT22;1382;52.142;11.618;2022-08-25T15:27:33;37.60;34.70
2749;DHT22;1382;52.142;11.618;2022-08-25T15:29:59;37.60;34.70
2749;DHT22;1382;52.142;11.618;2022-08-25T15:32:28;37.50;34.80
2749;DHT22;1382;52.142;11.618;2022-08-25T15:34:54;37.60;34.30
2749;DHT22;1382;52.142;11.618;2022-08-25T15:37:22;37.70;35.00
2749;DHT22;1382;52.142;11.618;2022-08-25T15:39:49;37.60;35.20
2749;DHT22;1382;52.142;11.618;2022-08-25T15:42:15;37.60;34.70
2749;DHT22;1382;52.142;11.618;2022-08-25T15:44:43;37.60;34.60
2749;DHT22;1382;52.142;11.618;2022-08-25T15:47:19;37.60;35.10
2749;DHT22;1382;52.142;11.618;2022-08-25T15:49:47;37.50;34.70
2749;DHT22;1382;52.142;11.618;2022-08-25T15:52:15;37.50;34.50
2749;DHT22;1382;52.142;11.618;2022-08-25T15:54:42;37.50;34.40
2749;DHT22;1382;52.142;11.618;2022-08-25T15:57:10;37.40;34.20
2749;DHT22;1382;52.142;11.618;2022-08-25T15:59:50;37.40;34.30
2749;DHT22;1382;52.142;11.618;2022-08-25T16:02:19;37.30;34.30
2749;DHT22;1382;52.142;11.618;2022-08-25T16:04:47;37.10;34.30
2749;DHT22;1382;52.142;11.618;2022-08-25T16:07:14;37.10;34.50
2749;DHT22;1382;52.142;11.618;2022-08-25T16:09:41;36.90;35.10
2749;DHT22;1382;52.142;11.618;2022-08-25T16:12:09;36.80;34.70
2749;DHT22;1382;52.142;11.618;2022-08-25T16:14:39;36.80;35.00
2749;DHT22;1382;52.142;11.618;2022-08-25T16:17:06;36.60;34.80
2749;DHT22;1382;52.142;11.618;2022-08-25T16:19:32;36.60;35.10
2749;DHT22;1382;52.142;11.618;2022-08-25T16:22:05;36.50;35.60
2749;DHT22;1382;52.142;11.618;2022-08-25T16:24:37;36.50;35.70
2749;DHT22;1382;52.142;11.618;2022-08-25T16:27:05;36.30;35.80
2749;DHT22;1382;52.142;11.618;2022-08-25T16:29:38;36.10;36.10